createdAt,value
2018-01-18T00:00:06.805Z,5.23
2018-01-18T00:05:10.348Z,3.60
2018-01-18T00:10:13.824Z,4.73
2018-01-18T00:15:16.568Z,5.10
2018-01-18T00:20:19.609Z,5.27
2018-01-18T00:25:22.258Z,5.40
2018-01-18T00:30:26.462Z,5.90
2018-01-18T00:35:29.251Z,5.70
2018-01-18T00:40:32.380Z,5.67
2018-01-18T00:45:35.160Z,6.30
2018-01-18T00:50:38.286Z,7.23
2018-01-18T00:55:40.971Z,7.40
2018-01-18T01:00:44.498Z,5.63
2018-01-18T01:05:47.287Z,6.13
2018-01-18T01:10:50.174Z,4.90
2018-01-18T01:15:52.820Z,5.87
2018-01-18T01:20:56.065Z,5.47
2018-01-18T01:25:59.502Z,3.90
2018-01-18T01:31:02.272Z,4.50
2018-01-18T01:36:05.733Z,2.93
2018-01-18T01:41:08.891Z,3.33
2018-01-18T01:46:11.539Z,4.00
2018-01-18T01:51:14.283Z,3.53
2018-01-18T01:56:16.998Z,3.23
2018-01-18T02:01:20.014Z,2.70
2018-01-18T02:06:23.447Z,4.53
2018-01-18T02:11:27.113Z,4.03
2018-01-18T02:16:29.790Z,3.77
2018-01-18T02:21:32.784Z,3.77
2018-01-18T02:26:35.470Z,3.80
2018-01-18T02:31:39.616Z,3.83
2018-01-18T02:36:42.330Z,3.60
2018-01-18T02:41:45.544Z,3.80
2018-01-18T02:46:48.272Z,4.50
2018-01-18T02:51:51.561Z,4.17
2018-01-18T02:56:54.233Z,4.00
2018-01-18T03:01:58.228Z,3.90
2018-01-18T03:07:00.874Z,4.80
2018-01-18T03:12:04.087Z,4.03
2018-01-18T03:17:06.729Z,3.73
2018-01-18T03:22:09.763Z,4.43
2018-01-18T03:27:12.428Z,5.17
2018-01-18T03:32:16.528Z,4.63
2018-01-18T03:37:19.232Z,4.93
2018-01-18T03:42:22.374Z,4.67
2018-01-18T03:47:25.039Z,4.10
2018-01-18T03:52:28.474Z,4.17
2018-01-18T03:57:31.159Z,3.50
2018-01-18T04:02:34.443Z,3.40
2018-01-18T04:07:37.868Z,3.10
2018-01-18T04:12:41.529Z,4.30
2018-01-18T04:17:44.207Z,2.70
2018-01-18T04:22:47.489Z,2.87
2018-01-18T04:27:50.142Z,2.93
2018-01-18T04:32:53.439Z,3.93
2018-01-18T04:37:56.118Z,3.30
2018-01-18T04:43:00.495Z,3.70
2018-01-18T04:48:03.143Z,3.27
2018-01-18T04:53:06.343Z,3.60
2018-01-18T04:58:09.025Z,3.57
2018-01-18T05:03:12.241Z,2.97
2018-01-18T05:08:14.889Z,2.93
2018-01-18T05:13:19.165Z,3.17
2018-01-18T05:18:21.889Z,3.20
2018-01-18T05:23:25.381Z,3.30
2018-01-18T05:28:28.078Z,3.57
2018-01-18T05:33:31.288Z,3.20
2018-01-18T05:38:33.957Z,3.77
2018-01-18T05:43:38.203Z,3.87
2018-01-18T05:48:40.847Z,3.43
2018-01-18T05:53:43.890Z,2.73
2018-01-18T05:58:47.360Z,2.63
2018-01-18T06:03:50.673Z,2.93
2018-01-18T06:08:53.342Z,3.60
2018-01-18T06:13:56.869Z,3.57
2018-01-18T06:18:59.537Z,3.67
2018-01-18T06:24:03.801Z,4.17
2018-01-18T06:29:06.461Z,3.10
2018-01-18T06:34:09.656Z,3.50
2018-01-18T06:39:12.321Z,3.00
2018-01-18T06:44:15.425Z,3.43
2018-01-18T06:49:18.100Z,3.10
2018-01-18T06:54:22.250Z,3.73
2018-01-18T06:59:24.934Z,3.17
2018-01-18T07:04:29.286Z,3.57
2018-01-18T07:09:32.707Z,2.20
2018-01-18T07:14:36.009Z,3.53
2018-01-18T07:19:39.409Z,3.20
2018-01-18T07:24:42.906Z,3.37
2018-01-18T07:29:45.573Z,3.60
2018-01-18T07:34:48.667Z,2.57
2018-01-18T07:39:51.928Z,3.50
2018-01-18T07:44:54.701Z,3.33
2018-01-18T07:49:57.338Z,3.33
2018-01-18T07:55:00.738Z,2.73
2018-01-18T08:00:03.400Z,2.80
2018-01-18T08:05:07.015Z,3.30
2018-01-18T08:10:09.649Z,3.27
2018-01-18T08:15:12.697Z,4.23
2018-01-18T08:20:15.370Z,4.50
2018-01-18T08:25:18.251Z,2.53
2018-01-18T08:30:20.867Z,3.23
2018-01-18T08:35:24.186Z,3.23
2018-01-18T08:40:26.852Z,2.80
2018-01-18T08:45:30.054Z,2.00
2018-01-18T08:50:32.734Z,2.80
2018-01-18T08:55:37.095Z,3.40
2018-01-18T09:00:39.757Z,2.50
2018-01-18T09:05:42.813Z,2.97
2018-01-18T09:10:45.457Z,2.13
2018-01-18T09:15:48.753Z,2.00
2018-01-18T09:20:51.444Z,1.77
2018-01-18T09:25:55.039Z,2.67
2018-01-18T09:30:57.720Z,2.80
2018-01-18T09:36:01.797Z,2.50
2018-01-18T09:41:04.462Z,3.13
2018-01-18T09:46:08.757Z,2.70
2018-01-18T09:51:11.428Z,2.90
2018-01-18T09:56:14.569Z,2.90
2018-01-18T10:01:17.252Z,3.00
2018-01-18T10:06:20.567Z,3.07
2018-01-18T10:11:23.218Z,2.93
2018-01-18T10:16:27.595Z,2.83
2018-01-18T10:21:30.245Z,4.47
2018-01-18T10:26:34.337Z,3.90
2018-01-18T10:31:37.006Z,4.27
2018-01-18T10:36:40.021Z,4.97
2018-01-18T10:41:42.707Z,4.27
2018-01-18T10:46:45.524Z,5.47
2018-01-18T10:51:48.194Z,5.07
2018-01-18T10:56:52.252Z,4.83
2018-01-18T11:01:55.963Z,5.10
2018-01-18T11:07:00.212Z,4.23
2018-01-18T11:12:02.860Z,7.03
2018-01-18T11:17:06.279Z,4.77
2018-01-18T11:22:08.914Z,4.90
2018-01-18T11:27:13.105Z,4.67
2018-01-18T11:32:15.754Z,3.73
2018-01-18T11:37:19.082Z,4.30
2018-01-18T11:42:21.738Z,4.60
2018-01-18T11:47:26.116Z,4.20
2018-01-18T11:52:28.789Z,4.57
2018-01-18T11:57:32.969Z,4.60
2018-01-18T12:02:35.679Z,3.97
2018-01-18T12:07:39.428Z,3.67
2018-01-18T12:12:41.615Z,3.23
2018-01-18T12:17:44.831Z,2.80
2018-01-18T12:22:47.506Z,1.87
2018-01-18T12:27:50.719Z,2.20
2018-01-18T12:32:53.396Z,2.00
2018-01-18T12:37:57.124Z,2.33
2018-01-18T12:42:59.834Z,1.97
2018-01-18T12:48:03.168Z,1.10
2018-01-18T12:53:05.880Z,1.70
2018-01-18T12:58:08.698Z,1.77
2018-01-18T13:03:11.336Z,2.03
2018-01-18T13:08:15.563Z,1.63
2018-01-18T13:13:18.234Z,1.30
2018-01-18T13:18:22.597Z,1.43
2018-01-18T13:23:25.263Z,1.53
2018-01-18T13:28:28.641Z,1.30
2018-01-18T13:33:31.331Z,1.40
2018-01-18T13:38:34.727Z,1.30
2018-01-18T13:43:38.135Z,1.10
2018-01-18T13:48:41.818Z,1.10
2018-01-18T13:53:44.482Z,1.00
2018-01-18T13:58:47.652Z,1.13
2018-01-18T14:03:51.082Z,1.40
2018-01-18T14:08:54.643Z,1.60
2018-01-18T14:13:57.281Z,1.83
2018-01-18T14:19:00.708Z,1.40
2018-01-18T14:24:03.353Z,1.70
2018-01-18T14:29:06.347Z,1.10
2018-01-18T14:34:09.050Z,3.70
2018-01-18T14:39:12.352Z,1.63
2018-01-18T14:44:14.963Z,2.20
2018-01-18T14:49:18.291Z,1.43
2018-01-18T14:54:20.991Z,1.60
2018-01-18T14:59:24.301Z,1.27
2018-01-18T15:04:26.960Z,1.20
2018-01-18T15:28:56.136Z,1.37
2018-01-18T15:33:59.221Z,1.73
2018-01-18T15:39:02.401Z,1.57
2018-01-18T15:44:05.414Z,1.43
2018-01-18T15:49:08.412Z,1.40
2018-01-18T15:54:11.466Z,1.40
2018-01-18T15:59:14.116Z,1.90
2018-01-18T16:04:17.689Z,1.30
2018-01-18T16:09:20.328Z,1.60
2018-01-18T16:14:24.048Z,1.67
2018-01-18T16:19:26.759Z,1.40
2018-01-18T16:24:29.935Z,1.20
2018-01-18T16:29:32.658Z,1.30
2018-01-18T16:34:36.833Z,1.20
2018-01-18T16:39:40.008Z,1.63
2018-01-18T16:44:43.114Z,1.27
2018-01-18T16:49:45.817Z,1.30
2018-01-18T16:54:48.933Z,1.60
2018-01-18T16:59:52.462Z,1.40
2018-01-18T17:04:55.968Z,1.50
2018-01-18T17:09:58.876Z,2.08
2018-01-18T17:15:02.267Z,2.37
2018-01-18T17:20:06.115Z,2.20
2018-01-18T17:25:09.448Z,1.97
2018-01-18T17:30:12.129Z,2.23
2018-01-18T17:35:15.754Z,2.00
2018-01-18T17:40:18.555Z,2.20
2018-01-18T17:45:21.887Z,2.23
2018-01-18T17:50:24.494Z,1.87
2018-01-18T17:55:27.893Z,1.90
2018-01-18T18:00:30.537Z,1.70
2018-01-18T18:05:33.906Z,1.27
2018-01-18T18:10:36.542Z,1.33
2018-01-18T18:15:40.089Z,1.50
2018-01-18T18:20:42.795Z,1.40
2018-01-18T18:25:46.879Z,1.20
2018-01-18T18:30:49.760Z,1.27
2018-01-18T18:35:52.636Z,1.40
2018-01-18T18:40:56.183Z,1.27
2018-01-18T18:45:59.087Z,1.30
2018-01-18T18:51:01.754Z,1.20
2018-01-18T18:56:05.330Z,1.20
2018-01-18T19:01:08.051Z,1.40
2018-01-18T19:06:10.941Z,1.53
2018-01-18T19:11:13.585Z,1.30
2018-01-18T19:16:16.819Z,1.10
2018-01-18T19:21:20.239Z,1.30
2018-01-18T19:26:23.089Z,1.50
2018-01-18T19:31:25.754Z,1.40
2018-01-18T19:36:29.469Z,1.20
2018-01-18T19:41:32.229Z,1.50
2018-01-18T19:46:35.530Z,1.20
2018-01-18T19:51:38.206Z,1.60
2018-01-18T19:56:41.375Z,1.60
2018-01-18T20:01:44.105Z,1.50
2018-01-18T20:06:47.829Z,1.60
2018-01-18T20:11:50.548Z,1.57
2018-01-18T20:16:54.042Z,1.80
2018-01-18T20:21:57.471Z,1.70
2018-01-18T20:27:00.465Z,1.63
2018-01-18T20:32:03.242Z,1.53
2018-01-18T20:37:07.525Z,1.60
2018-01-18T20:42:10.675Z,1.67
2018-01-18T20:47:14.674Z,1.83
2018-01-18T20:52:17.352Z,2.13
2018-01-18T20:57:21.098Z,1.80
2018-01-18T21:02:23.888Z,1.87
2018-01-18T21:07:27.137Z,1.80
2018-01-18T21:12:29.886Z,1.90
2018-01-18T21:17:33.477Z,3.83
2018-01-18T21:22:36.926Z,2.13
2018-01-18T21:27:40.447Z,1.70
2018-01-18T21:32:43.259Z,2.00
2018-01-18T21:37:46.461Z,1.87
2018-01-18T21:42:49.269Z,1.70
2018-01-18T21:47:52.619Z,1.80
2018-01-18T21:52:55.486Z,1.90
2018-01-18T21:57:58.848Z,1.93
2018-01-18T22:03:01.699Z,1.83
2018-01-18T22:08:06.011Z,1.90
2018-01-18T22:13:09.561Z,1.67
2018-01-18T22:18:12.811Z,2.10
2018-01-18T22:23:15.528Z,1.93
2018-01-18T22:28:18.631Z,2.57
2018-01-18T22:33:21.373Z,2.10
2018-01-18T22:38:24.938Z,2.17
2018-01-18T22:43:27.679Z,1.60
2018-01-18T22:48:30.781Z,2.23
2018-01-18T22:53:33.464Z,1.50
2018-01-18T22:58:37.013Z,2.10
2018-01-18T23:03:40.460Z,1.80
2018-01-18T23:08:43.400Z,1.97
2018-01-18T23:13:46.100Z,2.47
2018-01-18T23:18:49.710Z,1.80
2018-01-18T23:23:52.424Z,2.00
2018-01-18T23:28:55.595Z,1.87
2018-01-18T23:33:58.269Z,2.73
2018-01-18T23:39:02.140Z,2.17
2018-01-18T23:44:04.892Z,2.40
2018-01-18T23:49:08.083Z,2.80
2018-01-18T23:54:10.746Z,2.93
2018-01-18T23:59:13.702Z,2.80
